Time;durP1;ratioP1;P1;durP2;ratioP2;P2;SDS_P1;SDS_P2;PMS_P1;PMS_P2;Temp;Humidity;BMP_temperature;BMP_pressure;BME280_temperature;BME280_humidity;BME280_pressure;Samples;Min_cycle;Max_cycle;Signal;HPM_P1;HPM_P2
2022/08/08 00:01:32;;;;;;;;;;;;;;;20.86;81.64;95253.91;5094973;28;1053;-48
2022/08/08 00:04:14;;;;;;;;;;;;;;;20.78;81.75;95259.63;5094300;28;1039;-48
2022/08/08 00:06:49;;;;;;;;;;;;;;;20.70;81.93;95251.78;5094841;28;1195;-48
2022/08/08 00:09:33;;;;;;;;;;;;;;;20.70;81.00;95257.22;5095109;28;1029;-48
2022/08/08 00:12:01;;;;;;;;;;;;;;;20.60;81.53;95263.16;5094799;28;1039;-48
2022/08/08 00:14:46;;;;;;;;;;;;;;;20.59;81.85;95257.91;5094826;28;1989;-48
2022/08/08 00:17:16;;;;;;;;;;;;;;;20.58;81.82;95258.94;5094754;28;1054;-48
2022/08/08 00:19:45;;;;;;;;;;;;;;;20.37;82.21;95260.97;5094901;28;1063;-48
2022/08/08 00:22:23;;;;;;;;;;;;;;;20.28;82.12;95262.31;5094479;28;1044;-48
2022/08/08 00:24:51;;;;;;;;;;;;;;;20.40;82.08;95257.81;5094987;28;1644;-48
2022/08/08 00:27:18;;;;;;;;;;;;;;;20.52;81.44;95254.41;5094395;28;1017;-48
2022/08/08 00:29:47;;;;;;;;;;;;;;;20.62;81.00;95254.75;5094598;28;1024;-48
2022/08/08 00:32:22;;;;;;;;;;;;;;;20.54;81.64;95257.72;5094432;28;1064;-48
2022/08/08 00:37:51;;;;;;;;;;;;;;;20.89;79.85;95265.38;5094568;28;973;-48
2022/08/08 00:40:29;;;;;;;;;;;;;;;20.93;79.80;95264.75;5076476;28;1037;-48
2022/08/08 00:43:14;;;;;;;;;;;;;;;20.77;81.04;95266.16;5093300;28;1142;-48
2022/08/08 00:45:49;;;;;;;;;;;;;;;20.90;79.66;95264.34;5074299;28;970;-48
2022/08/08 00:48:34;;;;;;;;;;;;;;;21.17;79.05;95262.19;5073957;28;1054;-49
2022/08/08 00:51:03;;;;;;;;;;;;;;;21.13;79.11;95261.00;5074110;28;973;-48
2022/08/08 00:53:29;;;;;;;;;;;;;;;21.41;76.74;95265.94;5073771;28;1984;-48
2022/08/08 00:56:08;;;;;;;;;;;;;;;21.70;75.65;95263.53;5073851;28;970;-48
2022/08/08 00:58:48;;;;;;;;;;;;;;;21.89;74.54;95259.72;5073671;28;1041;-48
2022/08/08 01:01:44;;;;;;;;;;;;;;;21.84;75.32;95259.59;5073935;28;1050;-48
2022/08/08 01:04:34;;;;;;;;;;;;;;;21.48;76.69;95264.00;5051936;28;1081;-48
2022/08/08 01:07:12;;;;;;;;;;;;;;;21.06;77.49;95264.63;5073521;28;1274;-48
2022/08/08 01:09:38;;;;;;;;;;;;;;;20.76;79.72;95267.19;5073788;28;1008;-48
2022/08/08 01:12:23;;;;;;;;;;;;;;;20.79;79.58;95261.31;5073452;28;999;-48
2022/08/08 01:14:52;;;;;;;;;;;;;;;20.93;78.78;95266.63;5073501;28;1981;-48
2022/08/08 01:17:18;;;;;;;;;;;;;;;20.81;79.93;95267.34;5073512;28;970;-48
2022/08/08 01:19:56;;;;;;;;;;;;;;;20.48;80.44;95270.28;5073704;28;961;-48
2022/08/08 01:22:37;;;;;;;;;;;;;;;20.43;81.23;95273.69;5073222;28;1049;-48
2022/08/08 01:25:03;;;;;;;;;;;;;;;20.51;80.40;95271.72;5073369;28;1013;-48
2022/08/08 01:27:55;;;;;;;;;;;;;;;20.56;81.42;95269.19;5073509;28;1020;-48
2022/08/08 01:30:40;;;;;;;;;;;;;;;20.47;81.72;95271.38;5035249;28;1284;-48
2022/08/08 01:33:35;;;;;;;;;;;;;;;20.48;81.50;95264.84;5073103;28;1910;-48
2022/08/08 01:36:01;;;;;;;;;;;;;;;20.25;82.79;95276.31;5051957;28;1776;-48
2022/08/08 01:38:47;;;;;;;;;;;;;;;20.17;82.90;95269.25;5073151;28;1068;-48
2022/08/08 01:41:32;;;;;;;;;;;;;;;20.20;82.46;95273.41;5006008;28;1278;-49
2022/08/08 01:44:17;;;;;;;;;;;;;;;20.01;83.12;95264.31;5082691;28;1158;-49
2022/08/08 01:46:53;;;;;;;;;;;;;;;19.65;83.43;95268.44;5093489;28;1040;-48
2022/08/08 01:49:38;;;;;;;;;;;;;;;19.42;84.62;95267.03;5093314;28;1042;-48
2022/08/08 01:52:07;;;;;;;;;;;;;;;19.35;85.56;95263.53;5093335;28;999;-48
2022/08/08 01:54:58;;;;;;;;;;;;;;;19.36;85.04;95270.63;5093379;28;1913;-48
2022/08/08 01:57:37;;;;;;;;;;;;;;;19.56;83.85;95265.13;5093441;28;953;-48
2022/08/08 02:00:21;;;;;;;;;;;;;;;19.31;85.35;95271.25;5093054;28;1091;-49
2022/08/08 02:03:02;;;;;;;;;;;;;;;19.13;85.81;95262.97;5093195;28;1053;-48
2022/08/08 02:05:44;;;;;;;;;;;;;;;19.32;85.11;95266.66;5093308;28;1383;-49
2022/08/08 02:08:10;;;;;;;;;;;;;;;19.10;85.47;95271.50;5093129;28;966;-49
2022/08/08 02:10:43;;;;;;;;;;;;;;;19.24;84.97;95262.31;5093307;28;978;-48
2022/08/08 02:13:13;;;;;;;;;;;;;;;19.12;85.36;95269.41;5092816;28;1910;-48
2022/08/08 02:15:50;;;;;;;;;;;;;;;19.02;85.51;95271.72;5093426;28;966;-48
2022/08/08 02:18:20;;;;;;;;;;;;;;;18.98;85.90;95273.19;5093104;28;1008;-48
2022/08/08 02:24:17;;;;;;;;;;;;;;;18.87;85.79;95280.91;5093228;28;992;-48
2022/08/08 02:26:53;;;;;;;;;;;;;;;19.02;85.81;95288.00;5091063;28;2016;-48
2022/08/08 02:29:20;;;;;;;;;;;;;;;19.05;85.63;95290.28;5096758;28;1108;-48
2022/08/08 02:31:58;;;;;;;;;;;;;;;18.89;85.96;95297.81;5096877;28;1021;-48
2022/08/08 02:34:43;;;;;;;;;;;;;;;18.96;85.73;95292.38;5096788;28;1901;-48
2022/08/08 02:37:32;;;;;;;;;;;;;;;18.99;85.99;95296.53;5096862;28;957;-48
2022/08/08 02:40:16;;;;;;;;;;;;;;;18.99;85.82;95291.09;5096678;28;1034;-48
2022/08/08 02:43:05;;;;;;;;;;;;;;;18.97;86.37;95285.06;5096992;28;965;-48
2022/08/08 02:45:31;;;;;;;;;;;;;;;18.98;85.54;95287.56;5076131;28;1843;-48
2022/08/08 02:48:23;;;;;;;;;;;;;;;18.86;84.76;95295.50;5076419;28;985;-48
2022/08/08 02:50:49;;;;;;;;;;;;;;;18.56;86.21;95296.94;5076193;28;1105;-48
2022/08/08 02:53:36;;;;;;;;;;;;;;;18.52;87.16;95294.63;5076197;28;1914;-48
2022/08/08 02:56:20;;;;;;;;;;;;;;;18.50;86.69;95291.31;5076361;28;953;-48
2022/08/08 02:58:49;;;;;;;;;;;;;;;18.40;87.29;95293.59;5075911;28;982;-48
2022/08/08 03:01:43;;;;;;;;;;;;;;;18.50;86.69;95298.59;5075937;28;1022;-48
2022/08/08 03:04:35;;;;;;;;;;;;;;;18.38;86.46;95295.66;5075843;28;1056;-48
2022/08/08 03:07:01;;;;;;;;;;;;;;;18.44;86.50;95297.56;5057134;28;1280;-49
2022/08/08 03:09:46;;;;;;;;;;;;;;;18.32;86.70;95302.72;5075736;28;1112;-48
2022/08/08 03:12:21;;;;;;;;;;;;;;;18.17;86.37;95306.66;5076087;28;1000;-48
2022/08/08 03:15:01;;;;;;;;;;;;;;;17.99;87.28;95310.78;5075759;28;1914;-48
2022/08/08 03:17:30;;;;;;;;;;;;;;;17.97;87.54;95312.84;5075882;28;1024;-48
2022/08/08 03:20:04;;;;;;;;;;;;;;;18.09;87.61;95308.50;5074414;28;1000;-48
2022/08/08 03:22:33;;;;;;;;;;;;;;;18.20;87.13;95317.91;5076063;28;1017;-48
2022/08/08 03:25:03;;;;;;;;;;;;;;;18.11;86.36;95319.94;5075700;28;1032;-49
2022/08/08 03:27:40;;;;;;;;;;;;;;;17.93;86.86;95322.41;5075698;28;1068;-48
2022/08/08 03:30:08;;;;;;;;;;;;;;;18.00;87.01;95322.41;5075419;28;988;-48
2022/08/08 03:35:23;;;;;;;;;;;;;;;18.18;85.79;95324.56;5075258;28;1910;-48
2022/08/08 03:37:49;;;;;;;;;;;;;;;18.11;85.79;95330.78;5075439;28;1044;-48
2022/08/08 03:40:16;;;;;;;;;;;;;;;18.10;86.08;95329.13;5073985;28;1087;-48
2022/08/08 03:42:43;;;;;;;;;;;;;;;17.93;86.72;95334.06;5075469;28;964;-48
2022/08/08 03:45:12;;;;;;;;;;;;;;;17.88;87.27;95336.53;5094597;28;1205;-48
2022/08/08 03:47:39;;;;;;;;;;;;;;;18.09;86.14;95337.44;5095790;28;1020;-48
2022/08/08 03:50:13;;;;;;;;;;;;;;;18.03;87.01;95336.38;5095154;28;1258;-48
2022/08/08 03:52:39;;;;;;;;;;;;;;;17.99;87.49;95339.69;5095622;28;1003;-48
2022/08/08 03:55:12;;;;;;;;;;;;;;;18.12;86.98;95340.56;5095023;28;1914;-49
2022/08/08 03:57:43;;;;;;;;;;;;;;;18.29;86.27;95343.75;5095274;28;1055;-48
2022/08/08 04:00:11;;;;;;;;;;;;;;;18.39;86.46;95346.06;5095274;28;1083;-48
2022/08/08 04:02:37;;;;;;;;;;;;;;;18.57;85.68;95352.75;5095191;28;1032;-49
2022/08/08 04:05:04;;;;;;;;;;;;;;;18.45;86.20;95345.22;5094872;28;1096;-49
2022/08/08 04:07:37;;;;;;;;;;;;;;;18.40;86.42;95350.44;5095211;28;1029;-50
2022/08/08 04:10:05;;;;;;;;;;;;;;;18.53;86.61;95344.19;5094837;28;1025;-48
2022/08/08 04:12:31;;;;;;;;;;;;;;;18.66;86.06;95349.63;5094928;28;1062;-48
2022/08/08 04:14:57;;;;;;;;;;;;;;;18.70;85.28;95350.91;5094929;28;1909;-48
2022/08/08 04:17:23;;;;;;;;;;;;;;;18.75;85.79;95347.56;5094975;28;992;-48
2022/08/08 04:19:49;;;;;;;;;;;;;;;18.69;85.78;95349.22;5094775;28;1043;-48
2022/08/08 04:22:15;;;;;;;;;;;;;;;18.80;85.67;95346.94;5094786;28;1032;-48
2022/08/08 04:24:41;;;;;;;;;;;;;;;18.92;86.17;95359.69;5094617;28;976;-48
2022/08/08 04:27:07;;;;;;;;;;;;;;;19.03;85.69;95360.13;5094639;28;1016;-48
2022/08/08 04:29:33;;;;;;;;;;;;;;;19.11;86.13;95359.91;5094835;28;988;-48
2022/08/08 04:31:59;;;;;;;;;;;;;;;19.29;85.15;95359.25;5094698;28;1041;-49
2022/08/08 04:34:25;;;;;;;;;;;;;;;19.46;85.54;95362.34;5094555;28;1991;-48
2022/08/08 04:36:51;;;;;;;;;;;;;;;19.54;84.92;95366.72;5094332;28;1160;-49
2022/08/08 04:39:17;;;;;;;;;;;;;;;19.66;84.80;95365.84;5094386;28;1107;-48
2022/08/08 04:41:43;;;;;;;;;;;;;;;19.77;83.94;95368.97;5094256;28;1045;-48
2022/08/08 04:44:09;;;;;;;;;;;;;;;19.91;85.66;95377.94;5083313;28;1162;-48
2022/08/08 04:46:35;;;;;;;;;;;;;;;19.88;83.37;95376.47;5074054;28;1044;-48
2022/08/08 04:49:01;;;;;;;;;;;;;;;20.06;84.16;95387.47;5073457;28;1033;-48
2022/08/08 04:51:27;;;;;;;;;;;;;;;20.21;83.88;95384.50;5073770;28;1041;-49
2022/08/08 04:53:53;;;;;;;;;;;;;;;20.38;82.86;95390.25;5073975;28;1985;-49
2022/08/08 04:56:19;;;;;;;;;;;;;;;20.45;82.80;95382.06;5073577;28;1972;-48
2022/08/08 04:58:45;;;;;;;;;;;;;;;20.59;81.72;95391.00;5073821;28;1030;-48
2022/08/08 05:01:11;;;;;;;;;;;;;;;20.81;81.72;95395.06;5073512;28;1099;-48
2022/08/08 05:03:37;;;;;;;;;;;;;;;20.87;82.33;95398.78;5073918;28;1024;-48
2022/08/08 05:06:03;;;;;;;;;;;;;;;21.03;80.68;95397.41;5073307;28;1093;-48
2022/08/08 05:08:29;;;;;;;;;;;;;;;21.13;80.70;95402.34;5073671;28;934;-48
2022/08/08 05:10:55;;;;;;;;;;;;;;;21.31;79.98;95401.59;5073464;28;992;-48
2022/08/08 05:13:21;;;;;;;;;;;;;;;21.43;78.55;95413.41;5073698;28;1921;-48
2022/08/08 05:15:47;;;;;;;;;;;;;;;21.47;80.25;95403.78;5073634;28;953;-48
2022/08/08 05:18:13;;;;;;;;;;;;;;;21.69;78.96;95416.97;5073658;28;1028;-48
2022/08/08 05:20:39;;;;;;;;;;;;;;;21.83;79.28;95418.50;5073399;28;1080;-48
2022/08/08 05:23:05;;;;;;;;;;;;;;;21.87;79.35;95411.53;5073477;28;1060;-48
2022/08/08 05:25:31;;;;;;;;;;;;;;;21.98;77.70;95407.25;5073461;28;1057;-48
2022/08/08 05:27:57;;;;;;;;;;;;;;;22.02;78.30;95405.75;5073822;28;1030;-48
2022/08/08 05:30:23;;;;;;;;;;;;;;;22.20;79.10;95408.47;5073351;28;1033;-48
2022/08/08 05:32:49;;;;;;;;;;;;;;;22.39;76.16;95409.31;5073270;28;1044;-48
2022/08/08 05:35:16;;;;;;;;;;;;;;;22.59;77.09;95410.94;5073192;28;1942;-49
2022/08/08 05:37:46;;;;;;;;;;;;;;;22.85;76.02;95398.84;5073248;28;976;-49
2022/08/08 05:40:12;;;;;;;;;;;;;;;23.15;73.96;95404.28;5073190;28;1029;-49
2022/08/08 05:42:43;;;;;;;;;;;;;;;23.24;74.18;95403.94;5073383;28;981;-49
2022/08/08 05:45:09;;;;;;;;;;;;;;;23.29;73.28;95404.09;5092612;28;1217;-48
2022/08/08 05:47:36;;;;;;;;;;;;;;;23.43;74.30;95408.25;5093436;28;928;-48
2022/08/08 05:50:06;;;;;;;;;;;;;;;23.52;74.20;95411.47;5093442;28;984;-49
2022/08/08 05:52:35;;;;;;;;;;;;;;;23.64;73.54;95412.31;5093257;28;1019;-49
2022/08/08 05:55:02;;;;;;;;;;;;;;;23.61;72.82;95411.94;5093301;28;1958;-49
2022/08/08 05:57:32;;;;;;;;;;;;;;;23.54;73.78;95407.44;5093399;28;985;-48
2022/08/08 05:59:59;;;;;;;;;;;;;;;23.64;74.43;95416.91;5093488;28;1013;-49
2022/08/08 06:05:14;;;;;;;;;;;;;;;24.05;71.97;95412.44;5097170;28;1349;-48
2022/08/08 06:07:40;;;;;;;;;;;;;;;24.02;73.05;95421.94;5097546;28;1064;-49
2022/08/08 06:10:10;;;;;;;;;;;;;;;23.95;72.99;95411.13;5097258;28;1080;-48
2022/08/08 06:12:36;;;;;;;;;;;;;;;24.07;73.52;95418.47;5097137;28;1025;-49
2022/08/08 06:15:04;;;;;;;;;;;;;;;24.23;72.31;95417.75;5097235;28;1902;-49
2022/08/08 06:17:31;;;;;;;;;;;;;;;24.13;72.58;95412.06;5097070;28;965;-49
2022/08/08 06:19:57;;;;;;;;;;;;;;;24.22;73.00;95424.28;5097106;28;982;-49
2022/08/08 06:22:23;;;;;;;;;;;;;;;24.32;70.98;95424.50;5097109;28;969;-49
2022/08/08 06:24:49;;;;;;;;;;;;;;;24.70;71.23;95427.75;5097261;28;972;-49
2022/08/08 06:27:16;;;;;;;;;;;;;;;24.99;68.97;95428.59;5078743;28;1084;-49
2022/08/08 06:29:54;;;;;;;;;;;;;;;24.96;70.30;95431.81;5097115;28;992;-49
2022/08/08 06:32:26;;;;;;;;;;;;;;;24.98;71.07;95424.19;5096656;28;1048;-49
2022/08/08 06:34:53;;;;;;;;;;;;;;;24.96;69.27;95429.06;5097114;28;1981;-49
2022/08/08 06:37:22;;;;;;;;;;;;;;;25.06;69.92;95423.81;5096573;28;1225;-49
2022/08/08 06:39:51;;;;;;;;;;;;;;;25.21;69.63;95425.16;5096959;28;1020;-49
2022/08/08 06:42:18;;;;;;;;;;;;;;;25.41;67.66;95428.28;5096588;28;996;-49
2022/08/08 06:44:48;;;;;;;;;;;;;;;25.57;68.63;95429.34;5080611;28;1205;-49
2022/08/08 06:47:14;;;;;;;;;;;;;;;25.79;68.29;95429.44;5076633;28;978;-49
2022/08/08 06:49:41;;;;;;;;;;;;;;;26.05;67.27;95432.59;5076568;28;974;-49
2022/08/08 06:52:07;;;;;;;;;;;;;;;26.35;66.83;95436.81;5076047;28;1029;-49
2022/08/08 06:54:33;;;;;;;;;;;;;;;26.42;66.24;95440.22;5076234;28;1910;-49
2022/08/08 06:56:59;;;;;;;;;;;;;;;26.60;65.58;95428.16;5076268;28;1037;-49
2022/08/08 06:59:25;;;;;;;;;;;;;;;26.92;63.98;95428.25;5076005;28;1051;-49
2022/08/08 07:01:56;;;;;;;;;;;;;;;27.22;62.79;95421.41;5076137;28;1845;-49
2022/08/08 07:04:25;;;;;;;;;;;;;;;27.53;62.96;95429.97;5076065;28;1024;-49
2022/08/08 07:06:55;;;;;;;;;;;;;;;27.65;58.84;95428.69;5075932;28;1380;-49
2022/08/08 07:09:25;;;;;;;;;;;;;;;27.66;59.08;95424.06;5075727;28;1032;-49
2022/08/08 07:11:53;;;;;;;;;;;;;;;27.62;56.70;95425.63;5075447;28;969;-49
2022/08/08 07:14:39;;;;;;;;;;;;;;;27.64;56.83;95421.56;5075515;28;1914;-49
2022/08/08 07:17:08;;;;;;;;;;;;;;;27.72;56.12;95417.50;5058670;28;1320;-49
2022/08/08 07:19:34;;;;;;;;;;;;;;;27.85;56.36;95425.28;5075820;28;1061;-49
2022/08/08 07:22:04;;;;;;;;;;;;;;;28.00;58.06;95419.09;5075853;28;1032;-49
2022/08/08 07:24:35;;;;;;;;;;;;;;;28.15;56.78;95423.03;5075510;28;922;-49
2022/08/08 07:27:04;;;;;;;;;;;;;;;28.18;55.72;95428.00;5075676;28;1040;-49
2022/08/08 07:29:31;;;;;;;;;;;;;;;28.21;55.67;95424.72;5075471;28;1056;-49
2022/08/08 07:31:57;;;;;;;;;;;;;;;28.03;54.89;95420.50;5075648;28;1887;-49
2022/08/08 07:34:24;;;;;;;;;;;;;;;28.12;54.35;95415.34;5075268;28;1906;-49
2022/08/08 07:36:51;;;;;;;;;;;;;;;28.16;54.18;95425.53;5075541;28;1049;-49
2022/08/08 07:39:20;;;;;;;;;;;;;;;28.19;53.37;95415.91;5075168;28;1050;-49
2022/08/08 07:41:46;;;;;;;;;;;;;;;28.17;53.86;95415.34;5075627;28;1033;-49
2022/08/08 07:44:13;;;;;;;;;;;;;;;28.16;52.84;95419.19;5068771;28;1171;-49
2022/08/08 07:46:39;;;;;;;;;;;;;;;28.18;52.36;95411.50;5095696;28;958;-49
2022/08/08 07:49:05;;;;;;;;;;;;;;;28.20;51.39;95410.16;5095310;28;962;-49
2022/08/08 07:51:32;;;;;;;;;;;;;;;28.23;48.70;95411.56;5095521;28;966;-49
2022/08/08 07:54:05;;;;;;;;;;;;;;;28.30;49.11;95406.63;5095119;28;1987;-49
2022/08/08 07:56:35;;;;;;;;;;;;;;;28.34;47.12;95405.00;5095401;28;1032;-50
2022/08/08 07:59:01;;;;;;;;;;;;;;;28.46;47.81;95396.53;5095320;28;1004;-50
2022/08/08 08:01:31;;;;;;;;;;;;;;;28.55;47.30;95394.97;5095255;28;1154;-49
2022/08/08 08:04:01;;;;;;;;;;;;;;;28.58;48.07;95399.09;5095013;28;1036;-49
2022/08/08 08:06:28;;;;;;;;;;;;;;;28.61;47.29;95402.13;5094962;28;1185;-49
2022/08/08 08:09:20;;;;;;;;;;;;;;;28.68;47.97;95392.78;5094943;28;1072;-49
2022/08/08 08:11:48;;;;;;;;;;;;;;;28.77;48.63;95397.50;5095171;28;1084;-50
2022/08/08 08:14:16;;;;;;;;;;;;;;;28.79;46.98;95386.22;5094678;28;1998;-50
2022/08/08 08:16:44;;;;;;;;;;;;;;;28.94;46.96;95380.75;5095008;28;1019;-50
2022/08/08 08:19:11;;;;;;;;;;;;;;;29.10;47.73;95375.28;5094637;28;1023;-50
2022/08/08 08:21:37;;;;;;;;;;;;;;;29.19;45.10;95377.25;5095122;28;1024;-50
2022/08/08 08:24:03;;;;;;;;;;;;;;;29.19;43.49;95379.19;5093796;28;1021;-50
2022/08/08 08:26:29;;;;;;;;;;;;;;;29.17;46.67;95381.38;5094900;28;980;-50
2022/08/08 08:28:55;;;;;;;;;;;;;;;29.23;45.53;95384.97;5094611;28;1064;-49
2022/08/08 08:31:21;;;;;;;;;;;;;;;29.35;44.73;95378.13;5094561;28;1112;-49
2022/08/08 08:33:47;;;;;;;;;;;;;;;29.50;44.85;95376.44;5094309;28;1909;-50
2022/08/08 08:36:14;;;;;;;;;;;;;;;29.56;41.06;95369.84;5094718;28;1041;-49
2022/08/08 08:38:40;;;;;;;;;;;;;;;29.60;41.39;95376.47;5094671;28;1024;-49
2022/08/08 08:41:07;;;;;;;;;;;;;;;29.64;41.71;95377.56;5094442;28;957;-50
2022/08/08 08:43:38;;;;;;;;;;;;;;;29.77;42.62;95371.50;5088218;28;1162;-50
2022/08/08 08:46:08;;;;;;;;;;;;;;;29.89;42.63;95370.41;5073818;28;1089;-50
2022/08/08 08:48:34;;;;;;;;;;;;;;;29.93;38.50;95372.31;5074073;28;1084;-49
2022/08/08 08:51:01;;;;;;;;;;;;;;;29.96;39.49;95368.19;5074060;28;969;-50
2022/08/08 08:53:31;;;;;;;;;;;;;;;29.98;40.19;95369.56;5074071;28;1915;-50
2022/08/08 08:55:58;;;;;;;;;;;;;;;30.08;38.31;95367.88;5074258;28;974;-49
2022/08/08 08:58:31;;;;;;;;;;;;;;;30.12;36.89;95367.03;5073877;28;1041;-49
2022/08/08 09:01:01;;;;;;;;;;;;;;;30.13;37.00;95362.38;5073710;28;1077;-50
2022/08/08 09:03:28;;;;;;;;;;;;;;;30.10;36.33;95363.72;5073995;28;1036;-50
2022/08/08 09:05:54;;;;;;;;;;;;;;;30.10;36.73;95363.72;5073590;28;1232;-50
2022/08/08 09:08:23;;;;;;;;;;;;;;;30.20;38.23;95368.38;5073706;28;1092;-49
2022/08/08 09:10:48;;;;;;;;;;;;;;;30.28;36.27;95370.59;5073543;28;1053;-50
2022/08/08 09:13:15;;;;;;;;;;;;;;;30.33;36.26;95361.50;5073558;28;1042;-50
2022/08/08 09:15:41;;;;;;;;;;;;;;;30.28;34.26;95359.56;5073732;28;980;-50
2022/08/08 09:18:08;;;;;;;;;;;;;;;30.31;36.62;95358.97;5073773;28;1121;-50
2022/08/08 09:20:36;;;;;;;;;;;;;;;30.39;37.63;95360.34;5073413;28;1084;-49
2022/08/08 09:23:03;;;;;;;;;;;;;;;30.45;37.46;95358.41;5073591;28;1032;-50
2022/08/08 09:25:29;;;;;;;;;;;;;;;30.11;37.67;95357.13;5073450;28;1033;-50
2022/08/08 09:27:56;;;;;;;;;;;;;;;30.25;38.63;95354.59;5073433;28;1076;-50
2022/08/08 09:30:24;;;;;;;;;;;;;;;30.45;37.51;95344.59;5073449;28;969;-50
2022/08/08 09:32:51;;;;;;;;;;;;;;;30.41;34.57;95344.38;5073649;28;996;-49
2022/08/08 09:35:19;;;;;;;;;;;;;;;30.32;36.31;95338.59;5072865;28;1914;-50
2022/08/08 09:37:49;;;;;;;;;;;;;;;30.39;35.65;95342.97;5073432;28;1048;-50
2022/08/08 09:40:16;;;;;;;;;;;;;;;30.52;35.72;95339.63;5073245;28;974;-50
2022/08/08 09:42:44;;;;;;;;;;;;;;;30.54;37.49;95327.22;5073283;28;1057;-49
2022/08/08 09:45:09;;;;;;;;;;;;;;;30.04;36.17;95331.78;5092518;28;1229;-50
2022/08/08 09:47:39;;;;;;;;;;;;;;;29.57;37.23;95327.41;5093690;28;963;-50
2022/08/08 09:50:15;;;;;;;;;;;;;;;29.70;36.64;95326.84;5093278;28;1054;-50
2022/08/08 09:52:45;;;;;;;;;;;;;;;29.98;37.76;95332.91;5093558;28;992;-49
2022/08/08 09:55:11;;;;;;;;;;;;;;;30.28;34.97;95322.84;5092962;28;1909;-50
2022/08/08 09:57:38;;;;;;;;;;;;;;;29.90;32.41;95337.06;5093648;28;941;-50
2022/08/08 10:00:09;;;;;;;;;;;;;;;29.90;34.08;95330.69;5093433;28;996;-50
2022/08/08 10:02:37;;;;;;;;;;;;;;;30.09;32.79;95336.44;5093533;28;941;-50
2022/08/08 10:05:04;;;;;;;;;;;;;;;30.25;32.32;95326.19;5093142;28;1239;-52
2022/08/08 10:07:30;;;;;;;;;;;;;;;30.36;31.32;95323.13;5093254;28;1040;-50
2022/08/08 10:09:56;;;;;;;;;;;;;;;30.44;32.25;95329.19;5093194;28;1211;-50
2022/08/08 10:12:33;;;;;;;;;;;;;;;30.49;32.53;95324.47;5093233;28;1021;-50
2022/08/08 10:15:00;;;;;;;;;;;;;;;30.60;33.02;95316.97;5093233;28;1905;-50
2022/08/08 10:17:26;;;;;;;;;;;;;;;30.56;32.44;95315.88;5093052;28;962;-50
2022/08/08 10:19:55;;;;;;;;;;;;;;;30.56;32.63;95313.09;5093153;28;1127;-50
2022/08/08 10:22:22;;;;;;;;;;;;;;;30.66;33.95;95318.59;5092876;28;1025;-50
2022/08/08 10:24:53;;;;;;;;;;;;;;;30.65;31.51;95318.88;5093385;28;1242;-50
2022/08/08 10:27:23;;;;;;;;;;;;;;;30.70;32.19;95300.34;5093076;28;1057;-50
2022/08/08 10:29:49;;;;;;;;;;;;;;;30.80;32.45;95299.47;5093213;28;986;-49
2022/08/08 10:32:34;;;;;;;;;;;;;;;30.80;31.41;95304.97;5092885;28;992;-49
2022/08/08 10:35:01;;;;;;;;;;;;;;;30.77;30.97;95300.00;5093461;28;1985;-50
2022/08/08 10:37:28;;;;;;;;;;;;;;;30.72;30.99;95306.41;5093091;28;973;-50
2022/08/08 10:39:55;;;;;;;;;;;;;;;30.71;31.73;95281.84;5093166;28;984;-49
2022/08/08 10:42:22;;;;;;;;;;;;;;;30.76;32.74;95284.59;5092804;28;2053;-49
2022/08/08 10:44:48;;;;;;;;;;;;;;;30.83;33.48;95285.09;5076440;28;1173;-50
2022/08/08 10:47:18;;;;;;;;;;;;;;;30.86;32.56;95276.22;5073180;28;1001;-50
2022/08/08 10:50:04;;;;;;;;;;;;;;;30.81;32.11;95279.03;5076366;28;1037;-50
2022/08/08 10:52:30;;;;;;;;;;;;;;;30.88;33.20;95271.25;5058351;28;1099;-50
2022/08/08 10:54:57;;;;;;;;;;;;;;;30.85;33.70;95262.72;5076341;28;1882;-50
2022/08/08 10:57:23;;;;;;;;;;;;;;;30.75;33.93;95269.13;5076004;28;1104;-50
2022/08/08 10:59:54;;;;;;;;;;;;;;;30.79;34.09;95275.75;5076215;28;1032;-49
2022/08/08 11:02:30;;;;;;;;;;;;;;;30.90;34.46;95273.75;5075869;28;1023;-49
2022/08/08 11:04:57;;;;;;;;;;;;;;;30.83;34.41;95267.69;5076112;28;1041;-50
2022/08/08 11:07:26;;;;;;;;;;;;;;;30.80;34.78;95265.53;5075705;28;2232;-49
2022/08/08 11:09:53;;;;;;;;;;;;;;;30.92;34.01;95258.56;5076051;28;1024;-50
2022/08/08 11:12:19;;;;;;;;;;;;;;;30.96;33.43;95257.97;5075782;28;974;-50
2022/08/08 11:14:53;;;;;;;;;;;;;;;31.06;34.80;95252.38;5075792;28;1991;-49
2022/08/08 11:17:21;;;;;;;;;;;;;;;31.12;33.42;95251.22;5075899;28;1026;-50
2022/08/08 11:19:47;;;;;;;;;;;;;;;31.14;33.95;95243.47;5075980;28;1041;-49
2022/08/08 11:22:15;;;;;;;;;;;;;;;31.23;33.74;95257.50;5075672;28;1017;-50
2022/08/08 11:24:41;;;;;;;;;;;;;;;31.00;34.40;95253.53;5075855;28;949;-50
2022/08/08 11:27:08;;;;;;;;;;;;;;;30.92;34.77;95246.69;5075403;28;1037;-50
2022/08/08 11:29:34;;;;;;;;;;;;;;;30.91;34.12;95251.38;5075663;28;1057;-50
2022/08/08 11:32:02;;;;;;;;;;;;;;;31.00;35.73;95253.53;5075397;28;935;-50
2022/08/08 11:34:31;;;;;;;;;;;;;;;30.85;33.84;95258.03;5075670;28;1996;-50
2022/08/08 11:36:58;;;;;;;;;;;;;;;30.70;34.17;95250.69;5075521;28;957;-50
2022/08/08 11:39:25;;;;;;;;;;;;;;;30.62;35.06;95243.00;5075373;28;1858;-50
2022/08/08 11:41:51;;;;;;;;;;;;;;;30.60;34.61;95234.19;5075353;28;1088;-50
2022/08/08 11:44:18;;;;;;;;;;;;;;;30.52;34.66;95237.53;5087582;28;1202;-50
2022/08/08 11:46:44;;;;;;;;;;;;;;;30.32;34.26;95239.31;5095628;28;1217;-50
2022/08/08 11:49:10;;;;;;;;;;;;;;;30.41;35.13;95234.03;5095425;28;996;-50
2022/08/08 11:51:36;;;;;;;;;;;;;;;30.52;35.21;95237.53;5095515;28;1048;-50
2022/08/08 11:54:03;;;;;;;;;;;;;;;30.63;34.60;95230.84;5095124;28;1898;-49
2022/08/08 11:56:33;;;;;;;;;;;;;;;30.73;35.33;95227.19;5095291;28;1032;-50
2022/08/08 11:59:08;;;;;;;;;;;;;;;30.81;35.16;95225.75;5095273;28;1013;-49
2022/08/08 12:01:35;;;;;;;;;;;;;;;30.93;34.89;95218.78;5095734;28;1070;-50
2022/08/08 12:04:02;;;;;;;;;;;;;;;30.97;35.23;95215.47;5095143;28;972;-50
2022/08/08 12:06:28;;;;;;;;;;;;;;;30.96;34.54;95219.31;5095076;28;1266;-50
2022/08/08 12:09:03;;;;;;;;;;;;;;;30.98;34.18;95214.34;5094897;28;1023;-50
2022/08/08 12:11:36;;;;;;;;;;;;;;;31.10;35.25;95214.81;5095318;28;962;-50
2022/08/08 12:14:03;;;;;;;;;;;;;;;31.11;30.94;95222.81;5094796;28;1905;-49
2022/08/08 12:16:28;;;;;;;;;;;;;;;31.18;32.93;95216.94;5095119;28;1017;-49
2022/08/08 12:18:55;;;;;;;;;;;;;;;31.03;33.29;95214.31;5094832;28;1029;-49
2022/08/08 12:21:25;;;;;;;;;;;;;;;30.76;34.25;95210.06;5094762;28;1091;-50
2022/08/08 12:24:05;;;;;;;;;;;;;;;30.71;35.03;95207.34;5094887;28;1068;-50
2022/08/08 12:26:50;;;;;;;;;;;;;;;30.80;34.28;95213.09;5094726;28;1017;-49
2022/08/08 12:29:21;;;;;;;;;;;;;;;30.78;34.31;95218.88;5094491;28;1099;-49
2022/08/08 12:32:05;;;;;;;;;;;;;;;30.78;35.18;95212.56;5076755;28;990;-50
2022/08/08 12:34:32;;;;;;;;;;;;;;;30.79;34.52;95208.66;5094393;28;1938;-49
2022/08/08 12:37:03;;;;;;;;;;;;;;;30.83;35.59;95207.81;5094751;28;962;-50
2022/08/08 12:39:29;;;;;;;;;;;;;;;30.85;35.94;95197.31;5094523;28;946;-50
2022/08/08 12:41:59;;;;;;;;;;;;;;;30.87;34.61;95200.59;5094558;28;1008;-50
2022/08/08 12:44:26;;;;;;;;;;;;;;;30.87;34.69;95195.09;5081228;28;1201;-50
2022/08/08 12:46:59;;;;;;;;;;;;;;;30.87;34.46;95189.56;5074097;28;1025;-50
2022/08/08 12:49:26;;;;;;;;;;;;;;;30.92;34.61;95192.31;5073989;28;1029;-50
2022/08/08 12:51:52;;;;;;;;;;;;;;;30.97;34.90;95185.09;5074146;28;1050;-50
2022/08/08 12:54:22;;;;;;;;;;;;;;;31.03;34.62;95192.22;5073821;28;1913;-50
2022/08/08 12:56:48;;;;;;;;;;;;;;;30.99;33.14;95194.72;5074003;28;1182;-49
2022/08/08 12:59:15;;;;;;;;;;;;;;;30.98;33.27;95183.97;5073593;28;1072;-50
2022/08/08 13:01:48;;;;;;;;;;;;;;;31.02;34.04;95180.38;5074364;28;1470;-50
2022/08/08 13:04:16;;;;;;;;;;;;;;;31.02;33.80;95176.75;5073815;28;965;-50
2022/08/08 13:09:58;;;;;;;;;;;;;;;31.09;32.10;95174.47;5073364;28;1049;-50
2022/08/08 13:12:27;;;;;;;;;;;;;;;31.16;31.17;95174.16;5056040;28;1028;-50
2022/08/08 13:14:54;;;;;;;;;;;;;;;31.30;32.48;95169.56;5073399;28;1922;-50
2022/08/08 13:17:21;;;;;;;;;;;;;;;30.92;32.57;95173.00;5073560;28;1033;-50
2022/08/08 13:19:47;;;;;;;;;;;;;;;30.67;33.84;95170.41;5073498;28;988;-50
2022/08/08 13:22:16;;;;;;;;;;;;;;;30.64;31.98;95174.56;5073462;28;1073;-50
2022/08/08 13:24:43;;;;;;;;;;;;;;;30.77;31.96;95178.59;5073610;28;1008;-49
2022/08/08 13:27:10;;;;;;;;;;;;;;;30.88;32.66;95182.91;5073383;28;1112;-49
2022/08/08 13:29:46;;;;;;;;;;;;;;;30.99;31.69;95180.94;5073510;28;1041;-49
2022/08/08 13:32:12;;;;;;;;;;;;;;;31.04;31.31;95178.13;5072920;28;2005;-50